Airfield :
LOGIN :

Register | Disclaimer

   EN    FR    IT 

 










Legend :    VFR   Marginal VFR   IFR   Intensive IFR   Very Intensive IFR
Visi :
Ceiling :
>= 8 km
>= 3000ft
5 to 8 km
1000 to 3000 ft
1500m to 5 km
500 to 1000 ft
800 to 1500m
200 to 500 ft
< 800m
< 200 ft
Symbols :   Thunderstorms  Fog  Heavy snow  Heavy precipitations  Wind > 20 kt
SIGMETs :     Misc.  Thunderstorms  Icing  Turbulence  Mountain Waves  Volcanic Ashes






- Airport Elevation : 63 ft
- IATA code : BZM


EHWO - Woensdrecht Airbase

CURRENT METAR :
  • 262055Z AUTO 22011KT 160V250 9999 FEW019 10/07 Q1001 BLU

EXPIRED METARs :
  • 262025Z AUTO 22012G23KT 170V250 9999 SCT021 BKN024 BKN028 11/07 Q1001 WHT
  • 262000Z AUTO 22010KT 150V250 9999 BKN022 OVC026 11/07 Q1000 WHT
  • 261955Z AUTO 22011KT 180V250 9999 SCT021 OVC026 11/07 Q1000 WHT
  • 261933Z AUTO 21012KT 180V250 9999 BKN023 BKN027 BKN037 11/07 Q1000 WHT
  • 261925Z AUTO 21010G21KT 180V250 9999 OVC027 11/07 Q1000 BLU
  • 261855Z AUTO 21010KT 160V250 9999 FEW020 SCT025 BKN030 12/07 Q1000 BLU
  • 261825Z AUTO 22012KT 180V270 9999 BKN030 OVC035 12/07 Q1000 BLU

TAF TAF EHWO
Valid from the 26 at 10:00 until the 26 at 22:00 UTC


260951Z 2610/2622 21012KT 9999 SCT016 BKN020
TEMPO 2610/2615 21014G25KT
BECMG 2610/2612 FEW017 SCT020
PROB40
TEMPO 2614/2618 4500 -SHRA FEW015 SCT018CB BKN022



MET'MAP, your aeronautical weather chart ! - Copyright ORBIFLY December 2007 - Disclaimer

ORBIFLY MET'MAP TEAM :

Programming & Development : Alexandra Zaïnal
Concept & original design : Baudouin d'Aumeries
Assistance for programming : Marc-Olivier Méhu
Technical & hardware support : Manuel Goepfert

Contact : metmap@orbifly.com




SOURCES & CREDITS :

   NOAA